METAR Data
IDs: Format: Raw Decoded Include TAF

Data at: 2127 UTC 26 May 2019

METAR for:KMIE (Muncie/Johnson Fld, IN, US)
Text:KMIE 262053Z 32009KT 10SM SCT100 24/17 A3004 RMK AO2 RAB18E52 SLP163 P0000 60000 T02440172 56005
Temperature: 24.4°C ( 76°F)
Dewpoint: 17.2°C ( 63°F) [RH = 64%]
Pressure (altimeter):30.04 inches Hg (1017.4 mb) [Sea level pressure: 1016.3 mb]
Winds:from the NW (320 degrees) at 10 MPH (9 knots; 4.6 m/s)
Visibility:10 or more sm (16+ km)
Ceiling:at least 12,000 feet AGL
Clouds: scattered clouds at 10000 feet AGL